BFIBOEING FIELD/KING COUNTY INTL
METARs for airports near BFI, sorted by distance:
N 0 nm 21' KBFI 021753Z 00000KT 10SM BKN020 BKN085 08/02 A3019
SE 4 nm 32' KRNT 021808Z 19007KT 10SM FEW022 SCT029 BKN085 08/02 A3019
S 4 nm 432' KSEA 021813Z 21010KT 10SM SCT014 BKN046 BKN075 08/03 A3018
W 18 nm 444' KPWT 021812Z 20009KT 10SM BKN016 BKN080 07/02 A3018
SW 19 nm 294' KTIW 021753Z 23006KT 10SM FEW065 OVC080 06/02 A3019
N 22 nm 607' KPAE 021753Z 16007KT 10SM SCT016 OVC021 06/02 A3018
S 24 nm 322' KTCM 021824Z 21007KT 10SM FEW020 SCT025 BKN034 BKN045 OVC080 08/02 A3019
S 25 nm 537' KPLU 021815Z 19005KT 10SM SCT016 BKN036 OVC050 08/04 A3019
S 29 nm 301' KGRF 021758Z 19005KT 10SM FEW019 FEW034 SCT050 BKN060 BKN080 07/05 A3019
N 38 nm 141' KAWO 021834Z VRB03KT 10SM -RA FEW017 BKN029 OVC042 06/03 A3019
SW 38 nm 272' KSHN 021753Z 22008KT 10SM SCT080 07/02 A3017
SW 41 nm 207' KOLM 021754Z 19008KT 10SM SCT036 BKN060 07/02 A3020
N 51 nm 47' KNUW 021821Z 31010KT 9SM -RA FEW009 SCT024 OVC035 07/02 A3023
N 56 nm 145' KBVS 021815Z 00000KT 10SM BKN046 OVC055 11/03 A3019
NW 57 nm 13' KNOW 021810Z 00000KT 10SM OVC075 07/02 A3018
SW 58 nm 177' KCLS 021835Z VRB04KT 10SM FEW055 08/04 A3021
NW 59 nm 291' KCLM 021753Z 00000KT 10SM OVC080 06/01 A3017
NW 66 nm 112' KFHR 021753Z 16005KT 10SM FEW018 OVC055 06/03 A3019
SW 74 nm 17' KHQM 021753Z 20004KT 10SM SCT035 BKN044 BKN070 06/03 A3021
N 74 nm 34' KORS 021835Z 18009KT 10SM OVC060 07/03 A3017
N 76 nm 171' KBLI 021753Z 12003KT 10SM FEW018 SCT028 OVC035 04/01 A3019
E 78 nm 1763' KELN 021753Z 00000KT 10SM OVC060 03/M04 A3013
NW 80 nm 64' CYYJ 021800Z 00000KT 30SM FEW028 BKN062 BKN086 07/02 A3017
E 85 nm 1248' KEAT 021755Z 08004KT 10SM CLR 05/M10 A3015
S 88 nm 20' KKLS 021756Z 16004KT 10SM FEW018 BKN034 OVC080 08/04 A3024
SE 92 nm 1098' KYKM 021753Z 00000KT 10SM BKN080 06/M05 A3016
W 94 nm 193' KUIL 021823Z 21003KT 10SM SCT013 OVC070 07/03 A3019
TAFs for airports near BFI, sorted by distance:
N 0 nm 21' KBFI TAF KBFI 021720Z 0218/0318 14008KT P6SM VCSH FEW015 SCT030 BKN040
  TEMPO 0218/0220 -SHRA BKN015
  FM022000 20007KT P6SM VCSH BKN040
  FM022300 23010KT P6SM VCSH BKN050
  FM030600 19006KT P6SM SCT050
  FM031200 19010KT P6SM BKN025
S 4 nm 432' KSEA TAF KSEA 021720Z 0218/0324 14005KT P6SM VCSH FEW008 SCT011 BKN040
  TEMPO 0218/0220 -SHRA BKN011
  FM022000 20007KT P6SM VCSH BKN040
  FM022300 23010KT P6SM VCSH BKN050
  FM030600 19006KT P6SM SCT050
  FM031200 19010KT P6SM BKN025
W 18 nm 444' KPWT TAF KPWT 021720Z 0218/0318 25005KT P6SM VCSH SCT009 BKN040
  TEMPO 0218/0220 -SHRA BKN004
  FM022000 20007KT P6SM VCSH BKN040
  FM022300 23010KT P6SM VCSH BKN050
  FM030600 19006KT P6SM SCT050
  FM031200 19010KT P6SM BKN020
N 22 nm 607' KPAE TAF KPAE 021720Z 0218/0318 18007KT P6SM VCSH BKN030
  TEMPO 0218/0220 -SHRA
  FM022200 34008KT P6SM VCSH BKN040
  FM030700 17006KT P6SM SCT050
  FM031200 18010KT P6SM BKN020
S 24 nm 322' KTCM TAF KTCM 021303Z 0213/0319 20003KT 9000 -SHRA BKN015 610409 QNH3016INS
  TEMPO 0213/0217 BKN007
  BECMG 0216/0217 22006KT 9000 -SHRA BKN030 610309 QNH3016INS
  BECMG 0222/0223 23009KT 9999 NSW BKN040 620409 QNH3016INS
  BECMG 0306/0307 19006KT 9999 BKN040 620409 QNH3009INS TX09/0223Z TN02/0213Z
S 29 nm 301' KGRF TAF
  AMD KGRF 021419Z 0214/0319 VRB06KT 9999 OVC040 QNH3016INS
  BECMG 0217/0218 17012KT 9000 -SHRA BKN040 510022 QNH3016INS
  BECMG 0301/0302 VRB06KT 9999 NSW BKN050 QNH3011INS
  BECMG 0316/0317 21008KT 9999 FEW030 BKN050 QNH3008INS TX08/0220Z TN02/0308Z
SW 41 nm 207' KOLM TAF KOLM 021720Z 0218/0318 22006KT P6SM VCSH BKN050
  FM022100 25010KT P6SM VCSH BKN050
  FM030600 20004KT P6SM SCT040
  FM031000 21005KT P6SM BKN020
N 51 nm 47' KNUW TAF
  AMD KNUW 0217/0315 13007KT 9999 VCSH SCT008 BKN035 OVC050 640109 641008 QNH3018INS
  TEMPO 0217/0220 23010G16KT 9999 -SHRA SCT012 BKN020 OVC050
  FM022000 28012G18KT 9999 VCSH SCT015 BKN040 BKN070 640209 641108 QNH3016INS
  TEMPO 0220/0300 9000 -SHRA BR BKN020 OVC080
  FM030000 27010G18KT 9999 SCT008 BKN030 BKN070 640209 641108 QNH3014INS
  FM030500 23012G18KT 9000 -SHRA BR SCT008 BKN020 OVC035 640209 641108 530009 QNH3010INS
  TEMPO 0309/0315 16010KT 4800 SHRA BR BKN025 OVC040 T10/0222Z T03/0313Z
  AMD 1755 FS30004
NW 59 nm 291' KCLM TAF KCLM 021720Z 0218/0318 32008KT P6SM VCSH SCT045 BKN060
  FM022300 29012G18KT P6SM VCSH SCT050
  FM030900 27010KT P6SM SCT050
SW 74 nm 17' KHQM TAF KHQM 021720Z 0218/0318 26009KT P6SM VCSH BKN030 BKN050
  FM022100 27012KT P6SM VCSH BKN050
  FM030700 30006KT P6SM BKN040
N 76 nm 171' KBLI TAF KBLI 021720Z 0218/0318 18005KT P6SM VCSH FEW030 SCT050
  FM022000 22008KT P6SM VCSH BKN050
  FM030600 17010KT P6SM SCT050
E 85 nm 1248' KEAT KEAT 021736Z 0218/0318 15004KT P6SM FEW060
  FM030200 30007KT P6SM FEW250
SE 92 nm 1098' KYKM KYKM 021730Z 0218/0318 00000KT P6SM BKN080
  FM021900 16005KT P6SM FEW050 SCT080
  FM022300 25007KT P6SM SCT050 BKN080
  FM030300 28006KT P6SM SKC
  FM031700 31009KT P6SM FEW050

Shortcut to this page: http://wxbay.com.

Data may contain errors.